Time;durP1;ratioP1;P1;durP2;ratioP2;P2;SDS_P1;SDS_P2;PMS_P1;PMS_P2;Temp;Humidity;BMP_temperature;BMP_pressure;BME280_temperature;BME280_humidity;BME280_pressure;Samples;Min_cycle;Max_cycle;Signal;HPM_P1;HPM_P2
2022/04/23 00:00:21;;;;;;;26.93;20.07;;;;;;;;;;5060216;28;20406;-83
2022/04/23 00:02:48;;;;;;;29.60;22.10;;;;;;;;;;5060337;28;20410;-82
2022/04/23 00:05:15;;;;;;;28.77;21.17;;;;;;;;;;5061429;28;20501;-83
2022/04/23 00:07:41;;;;;;;29.93;22.20;;;;;;;;;;5060604;28;20449;-83
2022/04/23 00:10:08;;;;;;;29.27;21.97;;;;;;;;;;5060670;28;20406;-84
2022/04/23 00:12:35;;;;;;;30.33;22.13;;;;;;;;;;5061556;28;20453;-84
2022/04/23 00:15:01;;;;;;;28.90;22.00;;;;;;;;;;5061478;28;20410;-84
2022/04/23 00:17:28;;;;;;;31.17;22.10;;;;;;;;;;5059797;28;20434;-84
2022/04/23 00:19:54;;;;;;;31.00;22.63;;;;;;;;;;5060945;28;20397;-84
2022/04/23 00:22:20;;;;;;;29.20;20.90;;;;;;;;;;5061492;28;20406;-83
2022/04/23 00:24:46;;;;;;;28.00;20.83;;;;;;;;;;5079277;28;20414;-83
2022/04/23 00:27:12;;;;;;;36.97;25.10;;;;;;;;;;5060877;28;20430;-83
2022/04/23 00:29:39;;;;;;;30.30;22.20;;;;;;;;;;5058993;28;20412;-84
2022/04/23 00:32:06;;;;;;;29.17;21.30;;;;;;;;;;5059101;28;20485;-82
2022/04/23 00:34:32;;;;;;;29.03;22.07;;;;;;;;;;5059525;28;20406;-84
2022/04/23 00:36:58;;;;;;;29.40;21.03;;;;;;;;;;5061513;28;20409;-84
2022/04/23 00:39:24;;;;;;;28.27;22.40;;;;;;;;;;5059129;28;20457;-84
2022/04/23 00:41:52;;;;;;;29.70;21.10;;;;;;;;;;5060834;28;20413;-84
2022/04/23 00:44:18;;;;;;;27.30;20.17;;;;;;;;;;5059568;28;20413;-84
2022/04/23 00:46:45;;;;;;;26.03;20.23;;;;;;;;;;5060011;28;20914;-84
2022/04/23 00:49:12;;;;;;;26.60;21.23;;;;;;;;;;5058348;28;20506;-84
2022/04/23 00:51:42;;;;;;;27.63;19.83;;;;;;;;;;5059587;28;20453;-83
2022/04/23 00:54:08;;;;;;;30.03;21.00;;;;;;;;;;5059759;28;20906;-83
2022/04/23 00:56:35;;;;;;;26.43;19.63;;;;;;;;;;5059370;28;20400;-84
2022/04/23 00:59:04;;;;;;;23.90;18.70;;;;;;;;;;5059595;28;20436;-84
2022/04/23 01:01:30;;;;;;;27.73;21.40;;;;;;;;;;5060317;28;20428;-84
2022/04/23 01:03:57;;;;;;;25.60;19.00;;;;;;;;;;5073217;28;20409;-83
2022/04/23 01:06:24;;;;;;;23.80;19.40;;;;;;;;;;5073499;28;20394;-83
2022/04/23 01:08:51;;;;;;;28.93;19.07;;;;;;;;;;5064039;28;20468;-84
2022/04/23 01:11:17;;;;;;;29.37;21.93;;;;;;;;;;5073266;28;20509;-82
2022/04/23 01:13:44;;;;;;;29.43;19.80;;;;;;;;;;5070366;28;20402;-82
2022/04/23 01:16:10;;;;;;;29.83;21.17;;;;;;;;;;5050633;28;20409;-84
2022/04/23 01:18:41;;;;;;;30.80;23.20;;;;;;;;;;5080815;22;21150;-82
2022/04/23 01:21:10;;;;;;;24.77;20.40;;;;;;;;;;5054796;28;20818;-80
2022/04/23 01:23:36;;;;;;;28.37;20.70;;;;;;;;;;5048572;28;20430;-80
2022/04/23 01:26:04;;;;;;;26.27;19.40;;;;;;;;;;5048421;28;20406;-80
2022/04/23 01:28:31;;;;;;;28.30;20.57;;;;;;;;;;5048404;28;20425;-80
2022/04/23 01:30:57;;;;;;;26.83;20.20;;;;;;;;;;5048477;28;20429;-80
2022/04/23 01:33:24;;;;;;;27.00;20.73;;;;;;;;;;5048421;28;20410;-80
2022/04/23 01:35:50;;;;;;;24.20;18.20;;;;;;;;;;5048454;28;20401;-80
2022/04/23 01:38:16;;;;;;;22.73;17.23;;;;;;;;;;5047859;28;20432;-81
2022/04/23 01:40:42;;;;;;;26.70;17.07;;;;;;;;;;5048152;28;20460;-80
2022/04/23 01:43:09;;;;;;;22.83;16.83;;;;;;;;;;5048360;28;20458;-81
2022/04/23 01:45:35;;;;;;;23.43;17.40;;;;;;;;;;5048162;28;20421;-80
2022/04/23 01:48:01;;;;;;;20.57;16.30;;;;;;;;;;5048812;28;20422;-79
2022/04/23 01:50:27;;;;;;;23.23;18.10;;;;;;;;;;5049449;28;20441;-79
2022/04/23 01:52:53;;;;;;;23.87;16.97;;;;;;;;;;5030578;28;20476;-80
2022/04/23 01:55:20;;;;;;;18.93;15.53;;;;;;;;;;5048758;28;20406;-80
2022/04/23 01:57:46;;;;;;;22.90;16.47;;;;;;;;;;5048415;28;20402;-80
2022/04/23 02:00:15;;;;;;;24.67;18.43;;;;;;;;;;5048895;28;20414;-80
2022/04/23 02:02:44;;;;;;;24.70;18.80;;;;;;;;;;5048601;28;20425;-81
2022/04/23 02:05:10;;;;;;;27.33;18.77;;;;;;;;;;5031095;28;20506;-80
2022/04/23 02:07:37;;;;;;;22.50;16.87;;;;;;;;;;5052803;28;20410;-80
2022/04/23 02:10:04;;;;;;;24.20;18.80;;;;;;;;;;5052860;28;20402;-80
2022/04/23 02:12:30;;;;;;;21.77;16.90;;;;;;;;;;5052079;28;20449;-81
2022/04/23 02:14:57;;;;;;;25.67;18.87;;;;;;;;;;5052283;28;20405;-81
2022/04/23 02:17:23;;;;;;;23.70;17.63;;;;;;;;;;5051680;28;20712;-81
2022/04/23 02:19:49;;;;;;;22.97;16.93;;;;;;;;;;5051316;28;20473;-81
2022/04/23 02:22:15;;;;;;;21.57;17.57;;;;;;;;;;5051053;28;20437;-81
2022/04/23 02:24:41;;;;;;;20.43;14.90;;;;;;;;;;5050670;28;20406;-81
2022/04/23 02:27:07;;;;;;;21.97;15.40;;;;;;;;;;5051362;28;20470;-81
2022/04/23 02:29:33;;;;;;;23.70;16.97;;;;;;;;;;5050963;28;20427;-81
2022/04/23 02:31:59;;;;;;;25.80;17.30;;;;;;;;;;5051801;28;20477;-81
2022/04/23 02:34:25;;;;;;;30.50;18.30;;;;;;;;;;5052292;28;20770;-81
2022/04/23 02:36:51;;;;;;;18.60;15.17;;;;;;;;;;5051214;28;20429;-81
2022/04/23 02:39:17;;;;;;;25.50;17.77;;;;;;;;;;5051164;28;20418;-81
2022/04/23 02:41:44;;;;;;;23.33;18.40;;;;;;;;;;5051459;28;20410;-81
2022/04/23 02:44:10;;;;;;;23.97;19.07;;;;;;;;;;5051128;28;20403;-81
2022/04/23 02:46:36;;;;;;;22.03;17.67;;;;;;;;;;5051682;28;20414;-80
2022/04/23 02:49:02;;;;;;;22.63;17.53;;;;;;;;;;5050896;28;20446;-81
2022/04/23 02:51:28;;;;;;;24.63;19.47;;;;;;;;;;5051080;28;20450;-81
2022/04/23 02:53:54;;;;;;;22.53;17.77;;;;;;;;;;5051339;28;20805;-81
2022/04/23 02:56:20;;;;;;;27.03;20.20;;;;;;;;;;5051031;28;20410;-80
2022/04/23 02:58:46;;;;;;;23.97;18.70;;;;;;;;;;5050256;28;20422;-81
2022/04/23 03:01:12;;;;;;;27.23;18.27;;;;;;;;;;5050514;28;20470;-81
2022/04/23 03:03:40;;;;;;;24.23;18.30;;;;;;;;;;5053687;28;20406;-81
2022/04/23 03:06:07;;;;;;;25.90;18.60;;;;;;;;;;5056194;28;20406;-81
2022/04/23 03:08:33;;;;;;;25.93;19.07;;;;;;;;;;5035277;28;20434;-81
2022/04/23 03:10:59;;;;;;;27.20;19.43;;;;;;;;;;5050693;28;20407;-81
2022/04/23 03:13:25;;;;;;;24.20;18.10;;;;;;;;;;5050260;28;20443;-81
2022/04/23 03:15:52;;;;;;;24.20;17.93;;;;;;;;;;5050110;28;20414;-81
2022/04/23 03:18:18;;;;;;;23.00;18.23;;;;;;;;;;5049718;28;20433;-81
2022/04/23 03:20:45;;;;;;;23.77;17.63;;;;;;;;;;5032254;28;20508;-81
2022/04/23 03:23:12;;;;;;;25.67;19.20;;;;;;;;;;5049405;28;20512;-81
2022/04/23 03:25:38;;;;;;;23.07;18.70;;;;;;;;;;5049118;28;20410;-81
2022/04/23 03:28:04;;;;;;;25.53;20.07;;;;;;;;;;5049296;28;20481;-81
2022/04/23 03:30:31;;;;;;;24.13;19.60;;;;;;;;;;5049810;28;20406;-81
2022/04/23 03:32:58;;;;;;;23.90;19.40;;;;;;;;;;5049359;28;20473;-81
2022/04/23 03:35:24;;;;;;;25.00;18.27;;;;;;;;;;5049560;28;20415;-81
2022/04/23 03:37:50;;;;;;;23.57;17.93;;;;;;;;;;5049534;28;20403;-81
2022/04/23 03:40:16;;;;;;;22.73;17.00;;;;;;;;;;5049101;28;20429;-81
2022/04/23 03:42:45;;;;;;;22.53;17.17;;;;;;;;;;5048818;28;20426;-81
2022/04/23 03:45:11;;;;;;;24.37;18.07;;;;;;;;;;5049534;28;20441;-81
2022/04/23 03:47:37;;;;;;;22.27;17.37;;;;;;;;;;5049544;28;20478;-81
2022/04/23 03:50:04;;;;;;;21.53;17.30;;;;;;;;;;5049296;28;20410;-81
2022/04/23 03:52:30;;;;;;;26.43;19.23;;;;;;;;;;5050063;28;20442;-81
2022/04/23 03:54:56;;;;;;;22.97;17.77;;;;;;;;;;5049490;28;20462;-81
2022/04/23 03:57:22;;;;;;;24.83;19.03;;;;;;;;;;5048659;28;20399;-81
2022/04/23 03:59:48;;;;;;;24.50;18.10;;;;;;;;;;5049357;28;20418;-80
2022/04/23 04:02:14;;;;;;;24.30;17.57;;;;;;;;;;5051703;28;20399;-80
2022/04/23 04:04:42;;;;;;;20.90;16.47;;;;;;;;;;5049493;28;20540;-80
2022/04/23 04:07:08;;;;;;;24.07;17.80;;;;;;;;;;5030652;28;20415;-80
2022/04/23 04:09:35;;;;;;;26.37;19.83;;;;;;;;;;5048821;28;20938;-81
2022/04/23 04:12:01;;;;;;;24.73;17.87;;;;;;;;;;5049510;28;20481;-80
2022/04/23 04:14:27;;;;;;;24.50;18.63;;;;;;;;;;5048776;28;20417;-81
2022/04/23 04:16:54;;;;;;;22.37;17.80;;;;;;;;;;5048430;28;20413;-81
2022/04/23 04:19:20;;;;;;;23.70;17.03;;;;;;;;;;5042948;28;157481;-81
2022/04/23 04:21:46;;;;;;;27.00;19.13;;;;;;;;;;5031215;28;20434;-81
2022/04/23 04:24:13;;;;;;;27.00;18.00;;;;;;;;;;5049676;28;20403;-81
2022/04/23 04:26:50;;;;;;;24.40;17.80;;;;;;;;;;5049876;28;20424;-81
2022/04/23 04:29:16;;;;;;;21.50;16.70;;;;;;;;;;5048602;28;20465;-81
2022/04/23 04:31:51;;;;;;;24.80;17.37;;;;;;;;;;5049116;28;20454;-80
2022/04/23 04:34:21;;;;;;;24.90;18.53;;;;;;;;;;5050033;28;20444;-81
2022/04/23 04:36:48;;;;;;;28.60;16.77;;;;;;;;;;5048881;28;20414;-81
2022/04/23 04:39:18;;;;;;;25.17;18.33;;;;;;;;;;5049127;28;20419;-81
2022/04/23 04:41:46;;;;;;;21.90;17.17;;;;;;;;;;5049379;28;20411;-81
2022/04/23 04:44:13;;;;;;;25.53;18.20;;;;;;;;;;5048785;28;20402;-81
2022/04/23 04:46:39;;;;;;;23.67;18.07;;;;;;;;;;5048978;28;20442;-81
2022/04/23 04:49:06;;;;;;;23.33;17.07;;;;;;;;;;5049421;28;20430;-81
2022/04/23 04:51:35;;;;;;;26.60;18.67;;;;;;;;;;5049558;28;20453;-81
2022/04/23 04:54:01;;;;;;;20.73;15.90;;;;;;;;;;5049000;28;20989;-81
2022/04/23 04:56:27;;;;;;;24.57;17.50;;;;;;;;;;5048317;28;20407;-81
2022/04/23 04:58:53;;;;;;;23.90;17.90;;;;;;;;;;5049316;28;20418;-81
2022/04/23 05:01:19;;;;;;;25.13;17.30;;;;;;;;;;5048469;28;20422;-81
2022/04/23 05:03:45;;;;;;;22.77;17.40;;;;;;;;;;5048982;28;20409;-81
2022/04/23 05:06:11;;;;;;;25.50;16.97;;;;;;;;;;5049480;28;20406;-81
2022/04/23 05:08:38;;;;;;;23.60;17.10;;;;;;;;;;5031519;28;20784;-81
2022/04/23 05:11:04;;;;;;;23.87;17.23;;;;;;;;;;5048222;28;20462;-81
2022/04/23 05:13:30;;;;;;;22.27;15.50;;;;;;;;;;5048139;28;20419;-81
2022/04/23 05:15:56;;;;;;;22.63;15.77;;;;;;;;;;5049279;28;20403;-81
2022/04/23 05:18:23;;;;;;;20.53;14.90;;;;;;;;;;5048771;28;20434;-81
2022/04/23 05:20:49;;;;;;;19.77;14.93;;;;;;;;;;5048231;28;20420;-81
2022/04/23 05:23:15;;;;;;;20.60;14.23;;;;;;;;;;5049147;28;20414;-81
2022/04/23 05:25:41;;;;;;;20.73;14.47;;;;;;;;;;5048370;28;20410;-81
2022/04/23 05:28:07;;;;;;;20.27;13.60;;;;;;;;;;5048728;28;20466;-81
2022/04/23 05:30:37;;;;;;;21.50;14.60;;;;;;;;;;5047250;28;20414;-81
2022/04/23 05:33:03;;;;;;;23.43;15.20;;;;;;;;;;5048291;28;20457;-81
2022/04/23 05:35:29;;;;;;;17.80;12.50;;;;;;;;;;5048155;28;20414;-81
2022/04/23 05:37:55;;;;;;;18.80;13.73;;;;;;;;;;5048097;28;21701;-80
2022/04/23 05:40:21;;;;;;;18.13;13.03;;;;;;;;;;5031663;28;20410;-82
2022/04/23 05:42:47;;;;;;;20.07;14.23;;;;;;;;;;5035327;28;20422;-82
2022/04/23 05:45:13;;;;;;;19.97;14.27;;;;;;;;;;5052296;28;20406;-82
2022/04/23 05:47:42;;;;;;;21.50;15.27;;;;;;;;;;5052543;28;20411;-81
2022/04/23 05:50:09;;;;;;;19.77;14.10;;;;;;;;;;5052447;28;20478;-81
2022/04/23 05:52:38;;;;;;;21.77;15.90;;;;;;;;;;5052296;28;20458;-81
2022/04/23 05:55:05;;;;;;;21.10;14.07;;;;;;;;;;5051499;28;20402;-81
2022/04/23 05:57:34;;;;;;;19.17;13.50;;;;;;;;;;5051841;28;20403;-82
2022/04/23 06:00:00;;;;;;;20.03;14.30;;;;;;;;;;5051949;28;20450;-82
2022/04/23 06:02:26;;;;;;;21.10;13.60;;;;;;;;;;5035063;28;20449;-81
2022/04/23 06:04:52;;;;;;;20.63;14.00;;;;;;;;;;5052463;28;20497;-81
2022/04/23 06:07:19;;;;;;;22.57;15.50;;;;;;;;;;5052647;28;20437;-81
2022/04/23 06:09:46;;;;;;;21.40;13.80;;;;;;;;;;5052272;28;20430;-82
2022/04/23 06:12:12;;;;;;;20.70;13.97;;;;;;;;;;5052028;28;20434;-81
2022/04/23 06:14:38;;;;;;;18.27;13.43;;;;;;;;;;5053330;28;20407;-79
2022/04/23 06:17:10;;;;;;;16.97;12.53;;;;;;;;;;5052146;28;20406;-81
2022/04/23 06:19:37;;;;;;;22.83;14.57;;;;;;;;;;5052401;28;20523;-81
2022/04/23 06:22:03;;;;;;;20.57;14.20;;;;;;;;;;5052451;28;20420;-81
2022/04/23 06:24:29;;;;;;;27.77;14.43;;;;;;;;;;5051414;28;20410;-80
2022/04/23 06:26:55;;;;;;;20.70;11.93;;;;;;;;;;5052139;28;20430;-80
2022/04/23 06:29:21;;;;;;;28.07;14.37;;;;;;;;;;5051686;28;20418;-80
2022/04/23 06:31:47;;;;;;;22.10;14.07;;;;;;;;;;5052222;28;20938;-81
2022/04/23 06:34:14;;;;;;;20.47;13.83;;;;;;;;;;5052521;28;20437;-81
2022/04/23 06:36:40;;;;;;;22.00;14.40;;;;;;;;;;5051373;28;20434;-80
2022/04/23 06:39:06;;;;;;;20.57;12.60;;;;;;;;;;5052075;28;20442;-80
2022/04/23 06:41:32;;;;;;;19.30;13.13;;;;;;;;;;5051652;28;20398;-81
2022/04/23 06:43:58;;;;;;;19.07;12.87;;;;;;;;;;5053247;28;20433;-80
2022/04/23 06:46:24;;;;;;;21.17;14.33;;;;;;;;;;5054549;28;20435;-79
2022/04/23 06:48:50;;;;;;;22.63;14.20;;;;;;;;;;5054258;28;20417;-80
2022/04/23 06:51:17;;;;;;;20.73;15.30;;;;;;;;;;5050437;28;20413;-80
2022/04/23 06:53:43;;;;;;;19.20;13.23;;;;;;;;;;5050756;28;20402;-80
2022/04/23 06:56:09;;;;;;;19.60;14.70;;;;;;;;;;5052612;28;20398;-81
2022/04/23 06:58:35;;;;;;;24.80;16.03;;;;;;;;;;5051489;28;20430;-81
2022/04/23 07:01:01;;;;;;;19.20;14.67;;;;;;;;;;5051984;28;20395;-81
2022/04/23 07:03:27;;;;;;;24.43;12.87;;;;;;;;;;5051227;28;20414;-81
2022/04/23 07:05:53;;;;;;;20.10;13.27;;;;;;;;;;5051697;28;20969;-80
2022/04/23 07:08:20;;;;;;;20.13;13.37;;;;;;;;;;5051607;28;20448;-81
2022/04/23 07:10:46;;;;;;;20.43;13.87;;;;;;;;;;5051613;28;20415;-80
2022/04/23 07:13:12;;;;;;;19.63;13.30;;;;;;;;;;5050945;28;20493;-81
2022/04/23 07:15:39;;;;;;;20.13;13.50;;;;;;;;;;5050902;28;20405;-81
2022/04/23 07:20:39;;;;;;;17.63;13.30;;;;;;;;;;5057684;28;20461;-84
2022/04/23 07:25:51;;;;;;;19.37;12.27;;;;;;;;;;5062005;28;20385;-83
2022/04/23 07:28:20;;;;;;;19.07;12.90;;;;;;;;;;5060928;28;20894;-84
2022/04/23 07:30:46;;;;;;;20.20;12.90;;;;;;;;;;5061329;28;20428;-82
2022/04/23 07:37:28;;;;;;;23.53;13.70;;;;;;;;;;5060435;28;20510;-84
2022/04/23 07:38:43;;;;;;;20.80;15.10;;;;;;;;;;5073537;28;20421;-82
2022/04/23 07:41:09;;;;;;;19.17;13.90;;;;;;;;;;5061234;28;20424;-83
2022/04/23 07:43:35;;;;;;;20.10;14.20;;;;;;;;;;5061341;28;20394;-83
2022/04/23 07:46:01;;;;;;;18.30;13.37;;;;;;;;;;5061289;28;20398;-83
2022/04/23 07:48:27;;;;;;;18.73;13.77;;;;;;;;;;5059803;28;20425;-82
2022/04/23 07:50:53;;;;;;;21.83;13.93;;;;;;;;;;5061526;28;20504;-82
2022/04/23 07:53:19;;;;;;;22.07;13.80;;;;;;;;;;5061612;28;20499;-81
2022/04/23 07:55:45;;;;;;;20.60;12.87;;;;;;;;;;5061069;28;20413;-82
2022/04/23 07:58:12;;;;;;;21.20;13.67;;;;;;;;;;5062985;28;20397;-82
2022/04/23 08:00:43;;;;;;;21.60;15.47;;;;;;;;;;5066394;28;20409;-82
2022/04/23 08:03:09;;;;;;;20.33;14.20;;;;;;;;;;5066538;28;20401;-82
2022/04/23 08:05:35;;;;;;;20.00;12.23;;;;;;;;;;5069378;28;20418;-81
2022/04/23 08:08:02;;;;;;;17.47;11.60;;;;;;;;;;5072784;28;20413;-81
2022/04/23 08:10:28;;;;;;;16.13;12.20;;;;;;;;;;5072534;28;20409;-81
2022/04/23 08:12:55;;;;;;;21.03;14.43;;;;;;;;;;5072424;28;20445;-81
2022/04/23 08:15:22;;;;;;;17.80;12.90;;;;;;;;;;5062920;28;20412;-81
2022/04/23 08:17:48;;;;;;;16.70;12.37;;;;;;;;;;5060075;28;20452;-81
2022/04/23 08:20:15;;;;;;;19.50;13.83;;;;;;;;;;5058680;28;20837;-81
2022/04/23 08:22:41;;;;;;;20.13;14.23;;;;;;;;;;5059225;28;20413;-82
2022/04/23 08:25:07;;;;;;;21.93;12.80;;;;;;;;;;5060720;28;20413;-83
2022/04/23 08:30:51;;;;;;;17.23;13.80;;;;;;;;;;5051167;28;20960;-83
2022/04/23 08:33:17;;;;;;;16.97;13.77;;;;;;;;;;5062315;28;20480;-83
2022/04/23 08:35:43;;;;;;;17.50;13.77;;;;;;;;;;5060406;28;20406;-83
2022/04/23 08:38:09;;;;;;;18.20;14.30;;;;;;;;;;5060326;28;20404;-84
2022/04/23 08:40:37;;;;;;;19.03;13.27;;;;;;;;;;5064872;28;20781;-82
2022/04/23 08:43:03;;;;;;;20.93;14.10;;;;;;;;;;5074676;28;20417;-82
2022/04/23 08:45:32;;;;;;;16.80;12.77;;;;;;;;;;5072062;28;20467;-84
2022/04/23 08:48:00;;;;;;;18.23;14.23;;;;;;;;;;5061165;28;20480;-83
2022/04/23 08:50:27;;;;;;;15.87;12.67;;;;;;;;;;5059086;28;20432;-83
2022/04/23 08:52:57;;;;;;;16.57;12.63;;;;;;;;;;5058713;28;20499;-81
2022/04/23 08:55:26;;;;;;;19.13;15.60;;;;;;;;;;5059232;28;20397;-82
2022/04/23 08:57:52;;;;;;;15.87;12.63;;;;;;;;;;5058736;28;20446;-82
2022/04/23 09:00:18;;;;;;;19.40;14.60;;;;;;;;;;5058852;28;20413;-82
2022/04/23 09:02:44;;;;;;;20.30;15.10;;;;;;;;;;5060627;28;20408;-81
2022/04/23 09:05:14;;;;;;;15.97;13.13;;;;;;;;;;5060953;28;20409;-82
2022/04/23 09:07:40;;;;;;;20.90;14.77;;;;;;;;;;5060823;28;20406;-82
2022/04/23 09:10:07;;;;;;;18.50;14.87;;;;;;;;;;5059332;28;20489;-83
2022/04/23 09:12:33;;;;;;;18.40;13.47;;;;;;;;;;5058225;28;20449;-82
2022/04/23 09:23:43;;;;;;;16.63;13.60;;;;;;;;;;5060070;28;20401;-82
2022/04/23 09:26:19;;;;;;;16.30;13.87;;;;;;;;;;5059359;28;20393;-84
2022/04/23 09:28:50;;;;;;;18.00;15.47;;;;;;;;;;5058925;28;20453;-83
2022/04/23 09:31:16;;;;;;;14.50;12.33;;;;;;;;;;5058980;28;20397;-83
2022/04/23 09:33:43;;;;;;;16.30;12.87;;;;;;;;;;5058835;28;20440;-82
2022/04/23 09:36:09;;;;;;;17.20;12.53;;;;;;;;;;5059210;28;20398;-82
2022/04/23 09:38:36;;;;;;;15.17;12.00;;;;;;;;;;5059173;28;20508;-83
2022/04/23 09:41:15;;;;;;;13.90;12.40;;;;;;;;;;5058761;28;20409;-83
2022/04/23 09:43:42;;;;;;;15.67;12.30;;;;;;;;;;5058908;28;20389;-82
2022/04/23 09:46:12;;;;;;;14.90;11.30;;;;;;;;;;5059900;28;20865;-82
2022/04/23 09:48:38;;;;;;;14.87;12.10;;;;;;;;;;5057940;28;20432;-83
2022/04/23 09:51:05;;;;;;;15.87;12.00;;;;;;;;;;5059582;28;20398;-83
2022/04/23 09:53:31;;;;;;;16.77;11.80;;;;;;;;;;5059186;28;20416;-83
2022/04/23 09:56:04;;;;;;;13.80;11.80;;;;;;;;;;5059489;28;20451;-83
2022/04/23 09:58:31;;;;;;;11.93;9.73;;;;;;;;;;5059383;28;20460;-83
2022/04/23 10:00:58;;;;;;;14.67;10.90;;;;;;;;;;5059666;28;20420;-81
2022/04/23 10:03:31;;;;;;;12.33;10.27;;;;;;;;;;5058607;28;20394;-83
2022/04/23 10:05:58;;;;;;;11.80;9.40;;;;;;;;;;5059207;28;20508;-82
2022/04/23 10:08:32;;;;;;;12.20;9.27;;;;;;;;;;5058700;28;20425;-82
2022/04/23 10:11:12;;;;;;;10.20;8.37;;;;;;;;;;5059932;28;20398;-84
2022/04/23 10:13:45;;;;;;;11.40;10.20;;;;;;;;;;5059165;28;20393;-83
2022/04/23 10:16:11;;;;;;;13.80;9.50;;;;;;;;;;5058845;28;20398;-84
2022/04/23 10:18:40;;;;;;;10.30;8.87;;;;;;;;;;5059560;28;20963;-84
2022/04/23 10:21:08;;;;;;;9.33;8.37;;;;;;;;;;5058333;28;20421;-84
2022/04/23 10:23:42;;;;;;;12.17;9.10;;;;;;;;;;5059827;28;20408;-85
2022/04/23 10:26:15;;;;;;;12.47;9.70;;;;;;;;;;5058822;28;20462;-84
2022/04/23 10:28:48;;;;;;;13.37;11.90;;;;;;;;;;5063583;28;20429;-84
2022/04/23 10:31:21;;;;;;;13.03;11.63;;;;;;;;;;5061937;28;20421;-84
2022/04/23 10:33:54;;;;;;;14.40;12.40;;;;;;;;;;5063935;28;20405;-84
2022/04/23 10:36:23;;;;;;;13.87;12.23;;;;;;;;;;5062224;28;20405;-84
2022/04/23 10:38:53;;;;;;;14.83;13.07;;;;;;;;;;5063267;28;20512;-83
2022/04/23 10:41:21;;;;;;;15.43;13.83;;;;;;;;;;5063794;28;20398;-84
2022/04/23 10:43:49;;;;;;;20.53;13.10;;;;;;;;;;5062829;28;20402;-84
2022/04/23 10:46:35;;;;;;;16.73;13.63;;;;;;;;;;5064526;28;20402;-84
2022/04/23 10:49:13;;;;;;;15.10;12.67;;;;;;;;;;5074498;28;20417;-82
2022/04/23 10:51:46;;;;;;;14.57;13.07;;;;;;;;;;5074889;28;20441;-84
2022/04/23 10:54:16;;;;;;;18.00;15.17;;;;;;;;;;5068811;28;20406;-84
2022/04/23 10:56:42;;;;;;;19.07;16.07;;;;;;;;;;5068825;28;20408;-84
2022/04/23 10:59:28;;;;;;;18.97;15.67;;;;;;;;;;5062947;28;20479;-83
2022/04/23 11:01:54;;;;;;;19.73;17.60;;;;;;;;;;5061975;28;20417;-83
2022/04/23 11:04:20;;;;;;;17.17;14.13;;;;;;;;;;5062595;28;20404;-83
2022/04/23 11:12:20;;;;;;;16.93;14.37;;;;;;;;;;5062847;28;20450;-82
2022/04/23 11:14:51;;;;;;;17.43;13.43;;;;;;;;;;5062766;28;20414;-82
2022/04/23 11:17:44;;;;;;;19.20;16.83;;;;;;;;;;5062454;28;20439;-84
2022/04/23 11:20:11;;;;;;;17.77;14.53;;;;;;;;;;5060132;28;20445;-82
2022/04/23 11:22:38;;;;;;;18.57;15.50;;;;;;;;;;5061351;28;20806;-83
2022/04/23 11:25:04;;;;;;;16.70;14.90;;;;;;;;;;5061515;28;20418;-83
2022/04/23 11:27:32;;;;;;;21.00;15.90;;;;;;;;;;5061044;28;20500;-84
2022/04/23 11:29:59;;;;;;;20.20;14.57;;;;;;;;;;5063469;28;20444;-84
2022/04/23 11:32:28;;;;;;;24.00;16.20;;;;;;;;;;5065279;28;20492;-84
2022/04/23 11:34:55;;;;;;;19.60;15.90;;;;;;;;;;5062278;28;20416;-84
2022/04/23 11:37:28;;;;;;;23.80;14.73;;;;;;;;;;5067597;28;20394;-84
2022/04/23 11:40:03;;;;;;;17.20;14.33;;;;;;;;;;5074033;28;20455;-83
2022/04/23 11:42:43;;;;;;;18.67;15.40;;;;;;;;;;5075168;28;20453;-81
2022/04/23 11:45:11;;;;;;;19.20;15.77;;;;;;;;;;5069924;28;20417;-84
2022/04/23 11:47:37;;;;;;;21.33;16.07;;;;;;;;;;5060810;28;20410;-84
2022/04/23 11:50:22;;;;;;;19.60;17.00;;;;;;;;;;5061694;28;20453;-83
2022/04/23 11:52:58;;;;;;;21.73;17.17;;;;;;;;;;5062534;28;20805;-84
2022/04/23 11:55:25;;;;;;;21.40;17.03;;;;;;;;;;5062161;28;20492;-84
2022/04/23 11:57:54;;;;;;;21.00;16.17;;;;;;;;;;5070328;28;20405;-83
2022/04/23 12:00:21;;;;;;;20.20;15.60;;;;;;;;;;5062676;28;20421;-83
2022/04/23 12:02:47;;;;;;;22.23;16.00;;;;;;;;;;5058593;28;20398;-83
2022/04/23 12:05:21;;;;;;;21.77;17.30;;;;;;;;;;5059375;28;20402;-83
2022/04/23 12:07:47;;;;;;;20.50;16.10;;;;;;;;;;5060942;28;20433;-84
2022/04/23 12:10:13;;;;;;;19.10;15.30;;;;;;;;;;5060821;28;20424;-84
2022/04/23 12:12:40;;;;;;;21.43;16.90;;;;;;;;;;5058973;28;21011;-82
2022/04/23 12:15:10;;;;;;;23.53;18.27;;;;;;;;;;5060609;28;20448;-84
2022/04/23 12:17:45;;;;;;;21.70;17.40;;;;;;;;;;5060727;28;20428;-84
2022/04/23 12:20:12;;;;;;;23.57;18.33;;;;;;;;;;5060641;28;20436;-84
2022/04/23 12:22:38;;;;;;;20.50;17.27;;;;;;;;;;5061484;28;20410;-84
2022/04/23 12:25:11;;;;;;;19.37;17.27;;;;;;;;;;5062624;28;20463;-84
2022/04/23 12:27:56;;;;;;;22.63;16.70;;;;;;;;;;5061658;28;20401;-84
2022/04/23 12:41:57;;;;;;;20.37;16.97;;;;;;;;;;5064309;28;20385;-84
2022/04/23 12:44:24;;;;;;;22.43;17.30;;;;;;;;;;5064575;28;20405;-84
2022/04/23 12:47:00;;;;;;;24.63;19.20;;;;;;;;;;5078243;28;20426;-84
2022/04/23 12:49:47;;;;;;;21.60;17.00;;;;;;;;;;5077200;28;20420;-83
2022/04/23 12:52:15;;;;;;;20.93;17.17;;;;;;;;;;5062955;28;20445;-84
2022/04/23 12:54:41;;;;;;;22.60;16.70;;;;;;;;;;5061320;28;20410;-84
2022/04/23 12:57:14;;;;;;;25.23;18.00;;;;;;;;;;5060905;28;20821;-84
2022/04/23 12:59:40;;;;;;;21.17;17.00;;;;;;;;;;5060566;28;20433;-84
2022/04/23 13:02:06;;;;;;;20.93;17.53;;;;;;;;;;5061499;28;20913;-84
2022/04/23 13:04:32;;;;;;;22.17;17.63;;;;;;;;;;5060399;28;20409;-84
2022/04/23 13:09:43;;;;;;;19.33;15.87;;;;;;;;;;5069051;28;20494;-84
2022/04/23 13:12:09;;;;;;;19.17;17.07;;;;;;;;;;5076409;28;20957;-84
2022/04/23 13:14:35;;;;;;;23.80;17.77;;;;;;;;;;5061490;28;20440;-84
2022/04/23 13:17:01;;;;;;;20.40;16.80;;;;;;;;;;5060420;28;20393;-84
2022/04/23 13:19:27;;;;;;;24.07;18.00;;;;;;;;;;5076800;22;20488;-82
2022/04/23 13:21:54;;;;;;;21.83;17.50;;;;;;;;;;5062843;28;20419;-81
2022/04/23 13:24:20;;;;;;;21.83;17.80;;;;;;;;;;5069312;28;20406;-80
2022/04/23 13:26:46;;;;;;;19.27;16.37;;;;;;;;;;5069226;28;20473;-80
2022/04/23 13:29:13;;;;;;;18.23;16.27;;;;;;;;;;5069684;28;20508;-80
2022/04/23 13:31:41;;;;;;;20.53;17.13;;;;;;;;;;5068512;28;20498;-80
2022/04/23 13:34:07;;;;;;;21.90;17.27;;;;;;;;;;5069174;28;20410;-82
2022/04/23 13:36:34;;;;;;;23.10;18.13;;;;;;;;;;5069280;28;20398;-81
2022/04/23 13:39:00;;;;;;;18.63;16.10;;;;;;;;;;5069998;28;20436;-81
2022/04/23 13:41:26;;;;;;;19.93;16.67;;;;;;;;;;5069717;28;20413;-83
2022/04/23 13:43:52;;;;;;;21.40;16.73;;;;;;;;;;5070234;28;20406;-81
2022/04/23 13:46:18;;;;;;;22.60;17.60;;;;;;;;;;5051056;28;20436;-82
2022/04/23 13:48:44;;;;;;;18.77;16.00;;;;;;;;;;5068856;28;20427;-81
2022/04/23 13:51:10;;;;;;;20.30;15.87;;;;;;;;;;5068945;28;20405;-81
2022/04/23 13:53:36;;;;;;;18.70;15.40;;;;;;;;;;5069688;28;20444;-82
2022/04/23 13:56:03;;;;;;;20.60;15.90;;;;;;;;;;5069009;28;20453;-81
2022/04/23 13:58:29;;;;;;;22.23;16.57;;;;;;;;;;5069552;28;20406;-81
2022/04/23 14:00:55;;;;;;;19.97;16.53;;;;;;;;;;5068832;28;20422;-82
2022/04/23 14:11:35;;;;;;;19.27;16.70;;;;;;;;;;5072996;28;20433;-81
2022/04/23 14:14:01;;;;;;;18.83;16.40;;;;;;;;;;5072715;28;20403;-83
2022/04/23 14:16:27;;;;;;;19.40;16.70;;;;;;;;;;5073659;28;20416;-81
2022/04/23 14:18:53;;;;;;;19.33;16.70;;;;;;;;;;5074862;28;20432;-81
2022/04/23 14:21:19;;;;;;;18.27;16.13;;;;;;;;;;5078699;28;20383;-81
2022/04/23 14:23:45;;;;;;;18.93;15.83;;;;;;;;;;5078382;28;20405;-80
2022/04/23 14:26:12;;;;;;;24.20;16.33;;;;;;;;;;5078556;28;20393;-81
2022/04/23 14:28:38;;;;;;;21.57;16.43;;;;;;;;;;5077906;28;20406;-81
2022/04/23 14:31:04;;;;;;;19.77;15.47;;;;;;;;;;5061205;28;20495;-80
2022/04/23 14:33:30;;;;;;;17.30;15.50;;;;;;;;;;5078152;28;20433;-80
2022/04/23 14:35:57;;;;;;;17.73;15.80;;;;;;;;;;5078620;28;20432;-80
2022/04/23 14:38:23;;;;;;;16.40;14.30;;;;;;;;;;5078208;28;20418;-81
2022/04/23 14:40:49;;;;;;;18.77;14.13;;;;;;;;;;5078396;28;20418;-80
2022/04/23 14:43:15;;;;;;;16.23;14.53;;;;;;;;;;5077706;28;20417;-80
2022/04/23 14:45:42;;;;;;;19.43;14.30;;;;;;;;;;5073422;28;20440;-82
2022/04/23 14:48:09;;;;;;;18.17;13.83;;;;;;;;;;5072862;28;20493;-81
2022/04/23 14:53:20;;;;;;;16.20;13.50;;;;;;;;;;5072520;28;20444;-81
2022/04/23 14:55:47;;;;;;;17.50;15.53;;;;;;;;;;5072672;28;20512;-82
2022/04/23 14:58:14;;;;;;;17.07;14.67;;;;;;;;;;5055181;28;20418;-81
2022/04/23 15:00:40;;;;;;;16.93;14.70;;;;;;;;;;5055031;28;20437;-82
2022/04/23 15:03:06;;;;;;;18.90;17.00;;;;;;;;;;5074173;28;20441;-81
2022/04/23 15:05:32;;;;;;;19.00;16.70;;;;;;;;;;5072641;28;20428;-80
2022/04/23 15:07:58;;;;;;;19.00;16.97;;;;;;;;;;5070772;28;20417;-80